Terminal Aerodrome Forecast
Issued by NWS Bismarck, ND

Home | Current Version | Previous Version | Graphics & Text | Print | Product List | Glossary On
Versions: 1 2 3 4 5 6 7 8 9 10 11 12
000
FTUS43 KBIS 260500
TAFBIS
TAF
KBIS 260537Z 2606/2706 33013G18KT P6SM SKC
     FM260900 32009KT P6SM SKC
     FM261600 31008KT P6SM SKC
     FM270200 29004KT P6SM SKC=

USA.gov is the U.S. government's official web portal to all federal, state and local government web resources and services.